createdAt,value
2019-03-21T00:01:43.935Z,4.43
2019-03-21T00:03:53.180Z,4.30
2019-03-21T00:05:57.601Z,4.83
2019-03-21T00:08:01.997Z,4.33
2019-03-21T00:10:47.272Z,5.23
2019-03-21T00:12:52.715Z,5.47
2019-03-21T00:15:13.019Z,5.63
2019-03-21T00:17:25.338Z,4.80
2019-03-21T00:19:29.680Z,4.77
2019-03-21T00:21:34.023Z,4.40
2019-03-21T00:23:39.380Z,4.20
2019-03-21T00:25:44.715Z,4.17
2019-03-21T00:27:57.108Z,5.07
2019-03-21T00:30:01.458Z,4.70
2019-03-21T00:32:06.940Z,4.80
2019-03-21T00:34:11.321Z,4.73
2019-03-21T00:36:15.610Z,4.60
2019-03-21T00:38:19.972Z,4.53
2019-03-21T00:40:27.022Z,4.90
2019-03-21T00:42:31.305Z,4.90
2019-03-21T00:44:37.578Z,4.57
2019-03-21T00:46:41.897Z,4.40
2019-03-21T00:48:47.395Z,4.70
2019-03-21T00:50:51.765Z,4.60
2019-03-21T00:52:57.212Z,4.90
2019-03-21T00:55:01.578Z,5.43
2019-03-21T00:57:06.134Z,5.87
2019-03-21T00:59:12.580Z,6.00
2019-03-21T01:01:18.023Z,5.63
2019-03-21T01:03:22.374Z,5.30
2019-03-21T01:05:26.739Z,6.27
2019-03-21T01:07:31.105Z,6.03
2019-03-21T01:09:35.738Z,5.63
2019-03-21T01:11:40.035Z,5.07
2019-03-21T01:13:44.359Z,4.00
2019-03-21T01:15:48.647Z,5.00
2019-03-21T01:17:52.976Z,4.67
2019-03-21T01:19:57.311Z,5.13
2019-03-21T01:22:01.644Z,6.37
2019-03-21T01:24:06.118Z,5.50
2019-03-21T01:26:10.499Z,5.87
2019-03-21T01:28:15.927Z,5.60
2019-03-21T01:30:21.281Z,5.03
2019-03-21T01:32:25.706Z,4.33
2019-03-21T01:34:30.102Z,4.33
2019-03-21T01:36:34.466Z,5.57
2019-03-21T01:38:39.833Z,4.83
2019-03-21T01:40:44.926Z,4.83
2019-03-21T01:42:49.262Z,4.70
2019-03-21T01:44:53.605Z,4.50
2019-03-21T01:46:58.912Z,4.60
2019-03-21T01:49:03.247Z,5.07
2019-03-21T01:51:07.715Z,4.60
2019-03-21T01:53:13.162Z,4.83
2019-03-21T01:55:17.521Z,4.10
2019-03-21T01:57:21.858Z,4.53
2019-03-21T01:59:27.279Z,4.13
2019-03-21T02:01:31.660Z,4.03
2019-03-21T02:03:36.014Z,4.23
2019-03-21T02:05:40.342Z,4.30
2019-03-21T02:07:44.606Z,3.70
2019-03-21T02:09:49.981Z,3.57
2019-03-21T02:11:55.301Z,3.60
2019-03-21T02:13:59.628Z,3.40
2019-03-21T02:16:04.207Z,3.37
2019-03-21T02:18:08.608Z,3.60
2019-03-21T02:20:13.878Z,3.47
2019-03-21T02:22:18.193Z,2.33
2019-03-21T02:24:22.523Z,3.03
2019-03-21T02:26:26.882Z,3.10
2019-03-21T02:28:31.243Z,3.57
2019-03-21T02:30:36.606Z,3.20
2019-03-21T02:32:41.248Z,3.57
2019-03-21T02:34:45.530Z,2.77
2019-03-21T02:36:49.913Z,3.47
2019-03-21T02:38:55.293Z,3.60
2019-03-21T02:41:00.993Z,3.03
2019-03-21T02:43:05.442Z,3.07
2019-03-21T02:45:11.075Z,3.53
2019-03-21T02:47:15.402Z,3.27
2019-03-21T02:49:19.764Z,3.00
2019-03-21T02:51:24.044Z,3.23
2019-03-21T02:53:28.468Z,3.20
2019-03-21T02:55:32.839Z,3.40
2019-03-21T02:57:37.223Z,3.50
2019-03-21T02:59:41.559Z,3.17
2019-03-21T03:01:46.016Z,2.90
2019-03-21T03:03:50.344Z,3.03
2019-03-21T03:05:55.817Z,3.20
2019-03-21T03:08:01.159Z,3.03
2019-03-21T03:10:08.021Z,3.00
2019-03-21T03:12:12.299Z,3.43
2019-03-21T03:14:16.641Z,3.83
2019-03-21T03:16:21.211Z,3.87
2019-03-21T03:18:25.734Z,3.53
2019-03-21T03:20:31.027Z,3.50
2019-03-21T03:22:35.382Z,3.70
2019-03-21T03:24:39.927Z,4.03
2019-03-21T03:26:44.245Z,3.07
2019-03-21T03:28:49.602Z,3.77
2019-03-21T03:30:55.596Z,3.10
2019-03-21T03:33:00.039Z,2.93
2019-03-21T03:35:06.427Z,2.93
2019-03-21T03:37:12.676Z,3.23
2019-03-21T03:39:17.122Z,3.37
2019-03-21T03:41:21.466Z,3.53
2019-03-21T03:43:25.805Z,3.30
2019-03-21T03:45:38.051Z,2.90
2019-03-21T03:47:38.173Z,3.53
2019-03-21T03:49:42.527Z,3.10
2019-03-21T03:51:47.823Z,2.80
2019-03-21T03:53:53.157Z,3.43
2019-03-21T03:55:57.560Z,2.80
2019-03-21T03:58:02.925Z,3.03
2019-03-21T04:00:08.817Z,2.73
2019-03-21T04:02:19.053Z,2.37
2019-03-21T04:04:23.382Z,3.17
2019-03-21T04:06:27.936Z,2.90
2019-03-21T04:08:32.249Z,3.20
2019-03-21T04:10:38.641Z,2.97
2019-03-21T04:12:43.278Z,3.20
2019-03-21T04:14:47.565Z,3.77
2019-03-21T04:16:51.996Z,2.90
2019-03-21T04:18:56.297Z,3.20
2019-03-21T04:21:01.153Z,3.23
2019-03-21T04:23:06.636Z,3.30
2019-03-21T04:25:13.969Z,3.83
2019-03-21T04:27:18.345Z,3.23
2019-03-21T04:29:22.659Z,3.47
2019-03-21T04:31:27.119Z,2.93
2019-03-21T04:33:31.440Z,3.13
2019-03-21T04:35:35.751Z,3.10
2019-03-21T04:37:40.280Z,3.63
2019-03-21T04:39:44.576Z,3.27
2019-03-21T04:41:49.987Z,3.57
2019-03-21T04:43:55.401Z,3.60
2019-03-21T04:46:03.697Z,4.20
2019-03-21T04:48:07.934Z,4.20
2019-03-21T04:50:14.959Z,3.50
2019-03-21T04:52:19.273Z,4.57
2019-03-21T04:54:24.583Z,4.10
2019-03-21T04:56:28.956Z,3.73
2019-03-21T04:58:33.323Z,4.07
2019-03-21T05:00:38.182Z,3.97
2019-03-21T05:02:42.683Z,3.73
2019-03-21T05:04:47.006Z,4.10
2019-03-21T05:06:53.437Z,4.43
2019-03-21T05:08:57.768Z,4.43
2019-03-21T05:11:02.174Z,4.10
2019-03-21T05:13:06.489Z,4.43
2019-03-21T05:15:13.854Z,3.53
2019-03-21T05:17:20.158Z,4.57
2019-03-21T05:19:24.457Z,3.90
2019-03-21T05:21:28.819Z,3.43
2019-03-21T05:23:33.111Z,2.90
2019-03-21T05:25:39.448Z,3.20
2019-03-21T05:27:43.803Z,3.30
2019-03-21T05:29:48.102Z,2.97
2019-03-21T05:31:53.468Z,3.17
2019-03-21T05:33:59.771Z,3.87
2019-03-21T05:36:04.369Z,2.87
2019-03-21T05:38:08.794Z,3.20
2019-03-21T05:40:14.396Z,2.93
2019-03-21T05:42:20.814Z,3.23
2019-03-21T05:44:31.972Z,3.50
2019-03-21T05:46:36.345Z,3.90
2019-03-21T05:48:40.661Z,3.07
2019-03-21T05:50:45.978Z,3.90
2019-03-21T05:52:50.477Z,4.30
2019-03-21T05:54:54.811Z,4.73
2019-03-21T05:56:59.178Z,4.30
2019-03-21T05:59:03.604Z,3.57
2019-03-21T06:01:07.991Z,3.07
2019-03-21T06:03:21.863Z,3.53
2019-03-21T06:05:26.326Z,3.30
2019-03-21T06:07:45.014Z,3.30
2019-03-21T06:09:49.310Z,3.63
2019-03-21T06:11:56.509Z,3.07
2019-03-21T06:14:01.826Z,2.83
2019-03-21T06:16:10.390Z,3.30
2019-03-21T06:18:31.960Z,3.33
2019-03-21T06:21:09.251Z,3.97
2019-03-21T06:23:47.056Z,3.97
2019-03-21T06:26:15.231Z,3.87
2019-03-21T06:28:19.533Z,3.77
2019-03-21T06:30:23.827Z,3.77
2019-03-21T06:32:28.562Z,3.73
2019-03-21T06:34:32.877Z,3.87
2019-03-21T06:36:37.206Z,3.80
2019-03-21T06:38:41.510Z,4.10
2019-03-21T06:40:45.905Z,3.87
2019-03-21T06:42:50.335Z,4.50
2019-03-21T06:44:54.835Z,3.67
2019-03-21T06:47:00.237Z,4.53
2019-03-21T06:49:04.542Z,4.67
2019-03-21T06:51:08.835Z,3.90
2019-03-21T06:53:13.190Z,3.90
2019-03-21T06:55:17.585Z,4.30
2019-03-21T06:57:21.910Z,3.97
2019-03-21T06:59:26.282Z,4.37
2019-03-21T07:01:30.624Z,3.97
2019-03-21T07:03:34.989Z,4.10
2019-03-21T07:05:40.289Z,5.00
2019-03-21T07:07:44.581Z,4.87
2019-03-21T07:09:48.907Z,5.20
2019-03-21T07:11:53.209Z,5.20
2019-03-21T07:13:58.563Z,4.80
2019-03-21T07:16:02.992Z,4.53
2019-03-21T07:18:07.281Z,4.63
2019-03-21T07:20:12.625Z,4.87
2019-03-21T07:22:16.938Z,5.57
2019-03-21T07:24:22.271Z,8.00
2019-03-21T07:26:26.684Z,9.20
2019-03-21T07:28:31.055Z,8.60
2019-03-21T07:30:35.612Z,7.97
2019-03-21T07:32:41.041Z,6.07
2019-03-21T07:34:46.412Z,5.13
2019-03-21T07:36:50.856Z,5.53
2019-03-21T07:38:55.155Z,5.93
2019-03-21T07:40:59.511Z,5.17
2019-03-21T07:43:03.890Z,6.17
2019-03-21T07:45:09.464Z,4.40
2019-03-21T07:47:13.865Z,5.50
2019-03-21T07:49:20.225Z,4.97
2019-03-21T07:51:24.538Z,5.12
2019-03-21T07:53:28.965Z,5.37
2019-03-21T07:55:33.382Z,5.85
2019-03-21T07:57:37.871Z,6.22
2019-03-21T07:59:42.182Z,5.65
2019-03-21T08:01:46.520Z,6.15
2019-03-21T08:03:50.900Z,5.87
2019-03-21T08:05:55.333Z,6.03
2019-03-21T08:07:59.808Z,5.58
2019-03-21T08:10:04.790Z,5.55
2019-03-21T08:12:09.115Z,5.83
2019-03-21T08:14:13.605Z,5.80
2019-03-21T08:16:17.989Z,5.78
2019-03-21T08:18:22.336Z,6.28
2019-03-21T08:20:28.721Z,5.92
2019-03-21T08:22:36.238Z,5.72
2019-03-21T08:24:40.726Z,5.60
2019-03-21T08:26:45.100Z,5.87
2019-03-21T08:28:49.459Z,5.92
2019-03-21T08:31:19.182Z,5.53
2019-03-21T08:33:23.515Z,6.05
2019-03-21T08:35:27.892Z,6.37
2019-03-21T08:37:32.232Z,5.87
2019-03-21T08:39:37.539Z,5.35
2019-03-21T08:41:42.905Z,5.20
2019-03-21T08:43:47.232Z,5.03
2019-03-21T08:45:51.605Z,5.87
2019-03-21T08:47:56.985Z,6.05
2019-03-21T08:50:01.271Z,6.00
2019-03-21T08:52:06.675Z,5.60
2019-03-21T08:54:11.026Z,6.35
2019-03-21T08:56:15.457Z,4.83
2019-03-21T08:58:19.788Z,5.42
2019-03-21T09:00:34.035Z,4.78
2019-03-21T09:02:32.597Z,4.80
2019-03-21T09:04:36.905Z,5.30
2019-03-21T09:06:41.255Z,5.00
2019-03-21T09:08:45.569Z,5.12
2019-03-21T09:10:49.871Z,5.15
2019-03-21T09:12:56.236Z,4.60
2019-03-21T09:15:00.605Z,5.05
2019-03-21T09:17:06.060Z,4.62
2019-03-21T09:19:10.396Z,4.55
2019-03-21T09:21:19.769Z,4.37
2019-03-21T09:23:20.816Z,4.28
2019-03-21T09:25:25.337Z,4.50
2019-03-21T09:27:29.719Z,4.33
2019-03-21T09:29:34.013Z,4.60
2019-03-21T09:31:38.327Z,4.15
2019-03-21T09:33:42.665Z,4.40
2019-03-21T09:35:47.999Z,4.92
2019-03-21T09:37:52.314Z,4.03
2019-03-21T09:39:56.654Z,4.72
2019-03-21T09:42:01.038Z,4.50
2019-03-21T09:44:05.656Z,4.67
2019-03-21T09:46:10.046Z,5.67
2019-03-21T09:48:14.441Z,4.40
2019-03-21T09:50:26.960Z,4.22
2019-03-21T09:52:31.399Z,4.78
2019-03-21T09:54:35.760Z,3.77
2019-03-21T09:56:40.067Z,3.95
2019-03-21T09:58:44.376Z,4.55
2019-03-21T10:00:48.677Z,4.25
2019-03-21T10:02:53.022Z,4.40
2019-03-21T10:04:57.430Z,4.58
2019-03-21T10:07:01.771Z,4.05
2019-03-21T10:09:07.666Z,4.35
2019-03-21T10:11:12.053Z,4.28
2019-03-21T10:13:16.512Z,3.92
2019-03-21T10:15:22.898Z,4.33
2019-03-21T10:17:27.324Z,4.17
2019-03-21T10:19:31.723Z,3.67
2019-03-21T10:21:43.418Z,3.90
2019-03-21T10:23:44.214Z,3.95
2019-03-21T10:25:48.680Z,3.85
2019-03-21T10:27:53.069Z,3.95
2019-03-21T10:29:57.394Z,4.67
2019-03-21T10:32:13.885Z,3.72
2019-03-21T10:34:09.998Z,4.15
2019-03-21T10:36:16.132Z,4.33
2019-03-21T10:38:20.600Z,4.58
2019-03-21T10:40:24.895Z,3.95
2019-03-21T10:42:29.306Z,3.58
2019-03-21T10:44:33.606Z,4.03
2019-03-21T10:46:43.072Z,3.92
2019-03-21T10:48:47.396Z,4.00
2019-03-21T10:50:51.706Z,3.98
2019-03-21T10:52:56.022Z,3.35
2019-03-21T10:55:00.472Z,4.35
2019-03-21T10:57:04.818Z,3.83
2019-03-21T10:59:09.176Z,3.95
2019-03-21T11:01:13.460Z,4.50
2019-03-21T11:03:17.869Z,4.28
2019-03-21T11:05:23.493Z,4.30
2019-03-21T11:07:27.841Z,3.75
2019-03-21T11:09:34.279Z,3.62
2019-03-21T11:11:38.631Z,4.50
2019-03-21T11:13:42.933Z,3.40
2019-03-21T11:15:47.425Z,3.80
2019-03-21T11:17:52.327Z,4.20
2019-03-21T11:19:56.736Z,4.40
2019-03-21T11:22:06.302Z,4.10
2019-03-21T11:24:07.420Z,3.50
2019-03-21T11:26:11.901Z,3.30
2019-03-21T11:28:17.756Z,3.27
2019-03-21T11:30:29.916Z,3.47
2019-03-21T11:32:34.256Z,3.77
2019-03-21T11:34:39.608Z,3.20
2019-03-21T11:36:43.914Z,3.80
2019-03-21T11:38:48.282Z,4.50
2019-03-21T11:40:52.802Z,3.45
2019-03-21T11:42:57.504Z,4.30
2019-03-21T11:45:01.873Z,3.10
2019-03-21T11:47:08.204Z,3.17
2019-03-21T11:49:13.537Z,3.27
2019-03-21T11:51:18.921Z,4.75
2019-03-21T11:53:23.261Z,3.22
2019-03-21T11:55:27.667Z,3.52
2019-03-21T11:57:33.020Z,3.35
2019-03-21T11:59:50.712Z,5.20
2019-03-21T12:01:43.451Z,3.42
2019-03-21T12:03:49.770Z,3.05
2019-03-21T12:05:54.064Z,3.40
2019-03-21T12:07:58.371Z,3.20
2019-03-21T12:10:02.805Z,3.42
2019-03-21T12:12:08.138Z,3.45
2019-03-21T12:14:12.435Z,4.17
2019-03-21T12:16:17.858Z,3.95
2019-03-21T12:18:22.181Z,3.10
2019-03-21T12:20:35.817Z,3.75
2019-03-21T12:22:40.214Z,3.83
2019-03-21T12:24:44.555Z,4.00
2019-03-21T12:26:49.998Z,3.85
2019-03-21T12:28:54.377Z,3.58
2019-03-21T12:30:59.717Z,3.77
2019-03-21T12:33:04.353Z,3.58
2019-03-21T12:35:09.931Z,3.70
2019-03-21T12:37:14.326Z,4.20
2019-03-21T12:39:18.718Z,3.67
2019-03-21T12:41:29.197Z,3.62
2019-03-21T12:43:33.569Z,4.08
2019-03-21T12:45:39.049Z,4.35
2019-03-21T12:47:43.391Z,4.87
2019-03-21T12:49:47.719Z,4.47
2019-03-21T12:51:53.046Z,4.40
2019-03-21T12:53:58.482Z,4.40
2019-03-21T12:56:05.058Z,4.05
2019-03-21T12:58:09.367Z,4.35
2019-03-21T13:00:14.236Z,4.22
2019-03-21T13:02:18.619Z,4.15
2019-03-21T13:04:24.045Z,3.92
2019-03-21T13:06:28.371Z,4.05
2019-03-21T13:08:34.269Z,4.17
2019-03-21T13:10:38.840Z,3.80
2019-03-21T13:12:43.136Z,3.60
2019-03-21T13:14:47.457Z,3.33
2019-03-21T13:16:51.850Z,3.77
2019-03-21T13:18:56.211Z,3.30
2019-03-21T13:21:00.607Z,3.62
2019-03-21T13:23:05.510Z,3.65
2019-03-21T13:25:10.067Z,3.95
2019-03-21T13:27:14.373Z,3.42
2019-03-21T13:29:18.696Z,2.85
2019-03-21T13:31:24.113Z,3.58
2019-03-21T13:33:28.553Z,3.37
2019-03-21T13:35:33.309Z,3.70
2019-03-21T13:37:37.691Z,4.47
2019-03-21T13:39:42.016Z,3.75
2019-03-21T13:41:46.366Z,3.72
2019-03-21T13:43:51.686Z,3.33
2019-03-21T13:45:56.106Z,3.75
2019-03-21T13:48:00.427Z,4.08
2019-03-21T13:50:06.575Z,2.77
2019-03-21T13:52:10.911Z,2.98
2019-03-21T13:54:16.206Z,2.52
2019-03-21T13:56:21.573Z,3.40
2019-03-21T13:58:26.884Z,2.70
2019-03-21T14:00:32.377Z,3.00
2019-03-21T14:02:36.772Z,2.90
2019-03-21T14:04:41.068Z,2.47
2019-03-21T14:06:45.426Z,2.58
2019-03-21T14:08:49.850Z,2.77
2019-03-21T14:10:54.298Z,2.50
2019-03-21T14:12:59.675Z,2.20
2019-03-21T14:15:05.067Z,1.95
2019-03-21T14:17:09.464Z,2.08
2019-03-21T14:19:13.768Z,1.60
2019-03-21T14:21:18.063Z,1.40
2019-03-21T14:23:22.400Z,1.55
2019-03-21T14:25:26.884Z,1.85
2019-03-21T14:27:31.217Z,1.40
2019-03-21T14:29:35.683Z,1.37
2019-03-21T14:31:40.084Z,1.20
2019-03-21T14:33:44.501Z,1.30
2019-03-21T14:35:50.805Z,1.62
2019-03-21T14:37:56.144Z,1.40
2019-03-21T14:40:00.520Z,1.32
2019-03-21T14:42:04.974Z,1.37
2019-03-21T14:44:09.347Z,1.40
2019-03-21T14:46:13.713Z,1.30
2019-03-21T14:48:18.087Z,1.30
2019-03-21T14:50:22.444Z,1.07
2019-03-21T14:52:26.776Z,1.00
2019-03-21T14:54:31.094Z,1.30
2019-03-21T14:56:35.477Z,1.47
2019-03-21T14:58:39.818Z,1.30
2019-03-21T15:00:46.229Z,1.15
2019-03-21T15:02:50.641Z,1.50
2019-03-21T15:04:54.996Z,1.50
2019-03-21T15:06:59.405Z,1.27
2019-03-21T15:09:05.667Z,1.50
2019-03-21T15:11:16.894Z,2.20
2019-03-21T15:13:17.129Z,1.42
2019-03-21T15:15:21.584Z,1.57
2019-03-21T15:17:25.978Z,1.52
2019-03-21T15:19:31.483Z,1.15
2019-03-21T15:21:35.841Z,1.80
2019-03-21T15:23:44.212Z,1.80
2019-03-21T15:25:48.668Z,3.77
2019-03-21T15:27:53.185Z,2.00
2019-03-21T15:29:57.641Z,2.42
2019-03-21T15:32:01.972Z,3.62
2019-03-21T15:34:08.385Z,2.72
2019-03-21T15:36:14.672Z,1.80
2019-03-21T15:38:19.014Z,2.05
2019-03-21T15:40:24.364Z,2.95
2019-03-21T15:42:28.765Z,1.60
2019-03-21T15:44:33.087Z,2.20
2019-03-21T15:46:37.412Z,2.40
2019-03-21T15:48:41.848Z,1.55
2019-03-21T15:50:46.236Z,2.20
2019-03-21T15:52:50.557Z,3.15
2019-03-21T15:54:54.880Z,2.83
2019-03-21T15:56:59.653Z,2.05
2019-03-21T15:59:04.087Z,1.50
2019-03-21T16:01:08.454Z,1.70
2019-03-21T16:03:13.398Z,1.20
2019-03-21T16:05:17.766Z,1.45
2019-03-21T16:07:24.115Z,1.70
2019-03-21T16:09:28.481Z,1.23
2019-03-21T16:11:32.849Z,1.30
2019-03-21T16:13:37.216Z,1.40
2019-03-21T16:15:41.655Z,1.50
2019-03-21T16:17:46.305Z,1.43
2019-03-21T16:19:50.698Z,2.00
2019-03-21T16:21:55.067Z,2.00
2019-03-21T16:24:05.140Z,1.60
2019-03-21T16:26:05.680Z,1.80
2019-03-21T16:28:10.044Z,1.40
2019-03-21T16:30:14.959Z,1.80
2019-03-21T16:32:20.443Z,2.87
2019-03-21T16:34:24.876Z,3.27
2019-03-21T16:36:29.115Z,3.30
2019-03-21T16:38:35.403Z,3.20
2019-03-21T16:40:39.870Z,1.67
2019-03-21T16:42:44.227Z,3.13
2019-03-21T16:44:52.235Z,2.77
2019-03-21T16:46:56.610Z,2.80
2019-03-21T16:49:02.022Z,2.90
2019-03-21T16:51:06.406Z,1.90
2019-03-21T16:53:10.787Z,1.80
2019-03-21T16:55:15.227Z,1.50
2019-03-21T16:57:19.578Z,1.77
2019-03-21T16:59:26.283Z,2.30
2019-03-21T17:01:30.663Z,2.37
2019-03-21T17:03:36.041Z,2.30
2019-03-21T17:05:40.523Z,2.40
2019-03-21T17:07:44.810Z,2.27
2019-03-21T17:09:49.193Z,2.93
2019-03-21T17:11:53.584Z,4.07
2019-03-21T17:13:57.865Z,4.00
2019-03-21T17:16:02.199Z,4.33
2019-03-21T17:18:06.670Z,3.20
2019-03-21T17:20:11.382Z,2.53
2019-03-21T17:22:15.805Z,3.17
2019-03-21T17:24:29.339Z,3.43
2019-03-21T17:26:26.399Z,2.57
2019-03-21T17:28:30.757Z,1.90
2019-03-21T17:30:37.097Z,2.10
2019-03-21T17:32:41.490Z,1.87
2019-03-21T17:34:45.913Z,2.40
2019-03-21T17:36:51.262Z,1.50
2019-03-21T17:38:56.625Z,1.30
2019-03-21T17:41:02.001Z,1.33
2019-03-21T17:43:07.369Z,1.63
2019-03-21T17:45:13.892Z,2.53
2019-03-21T17:47:18.316Z,2.50
2019-03-21T17:49:22.733Z,2.47
2019-03-21T17:51:28.081Z,3.73
2019-03-21T17:53:32.456Z,5.20
2019-03-21T17:55:36.855Z,3.90
2019-03-21T17:57:41.193Z,3.90
2019-03-21T17:59:45.544Z,2.40
2019-03-21T18:01:51.295Z,2.33
2019-03-21T18:03:56.816Z,2.87
2019-03-21T18:06:01.236Z,1.97
2019-03-21T18:08:05.617Z,1.97
2019-03-21T18:10:23.577Z,1.50
2019-03-21T18:12:27.973Z,1.30
2019-03-21T18:14:32.374Z,1.53
2019-03-21T18:16:36.753Z,2.17
2019-03-21T18:18:41.115Z,2.57
2019-03-21T18:20:45.546Z,2.87
2019-03-21T18:22:51.043Z,3.50
2019-03-21T18:24:55.453Z,4.00
2019-03-21T18:26:59.887Z,4.27
2019-03-21T18:29:05.359Z,3.93
2019-03-21T18:31:09.774Z,3.27
2019-03-21T18:33:14.218Z,3.37
2019-03-21T18:35:19.852Z,3.30
2019-03-21T18:37:25.172Z,2.87
2019-03-21T18:39:30.553Z,3.73
2019-03-21T18:41:35.831Z,2.93
2019-03-21T18:43:40.385Z,2.80
2019-03-21T18:45:45.776Z,3.53
2019-03-21T18:47:51.245Z,3.90
2019-03-21T18:49:56.603Z,4.17
2019-03-21T18:52:01.013Z,4.57
2019-03-21T18:54:05.495Z,5.37
2019-03-21T18:56:09.892Z,5.83
2019-03-21T18:58:14.250Z,6.17
2019-03-21T19:00:19.520Z,6.00
2019-03-21T19:02:23.805Z,5.70
2019-03-21T19:04:28.154Z,4.30
2019-03-21T19:06:32.489Z,2.30
2019-03-21T19:08:36.979Z,1.90
2019-03-21T19:10:41.334Z,2.47
2019-03-21T19:12:45.824Z,3.10
2019-03-21T19:14:51.149Z,2.07
2019-03-21T19:16:55.474Z,2.73
2019-03-21T19:18:59.768Z,3.00
2019-03-21T19:21:04.177Z,2.43
2019-03-21T19:23:08.486Z,2.57
2019-03-21T19:25:18.488Z,1.80
2019-03-21T19:27:19.393Z,2.87
2019-03-21T19:29:23.705Z,3.43
2019-03-21T19:31:28.021Z,3.30
2019-03-21T19:33:32.324Z,3.53
2019-03-21T19:35:36.660Z,5.10
2019-03-21T19:37:41.988Z,3.63
2019-03-21T19:39:46.297Z,2.70
2019-03-21T19:41:50.799Z,3.23
2019-03-21T19:43:56.125Z,2.90
2019-03-21T19:46:00.564Z,2.87
2019-03-21T19:48:05.001Z,2.43
2019-03-21T19:50:10.194Z,3.43
2019-03-21T19:52:14.571Z,2.70
2019-03-21T19:54:18.931Z,3.23
2019-03-21T19:56:23.284Z,4.67
2019-03-21T19:58:27.671Z,3.30
2019-03-21T20:00:32.003Z,3.00
2019-03-21T20:02:38.449Z,2.90
2019-03-21T20:04:42.863Z,3.20
2019-03-21T20:06:48.250Z,3.10
2019-03-21T20:08:53.572Z,4.07
2019-03-21T20:10:57.976Z,3.97
2019-03-21T20:13:04.408Z,3.83
2019-03-21T20:15:10.148Z,4.90
2019-03-21T20:17:15.432Z,3.97
2019-03-21T20:19:19.733Z,4.07
2019-03-21T20:21:25.916Z,3.90
2019-03-21T20:23:30.262Z,4.30
2019-03-21T20:25:42.815Z,4.37
2019-03-21T20:27:40.870Z,4.50
2019-03-21T20:29:45.191Z,5.00
2019-03-21T20:31:49.662Z,5.27
2019-03-21T20:33:54.021Z,4.80
2019-03-21T20:35:58.452Z,4.63
2019-03-21T20:38:03.921Z,4.63
2019-03-21T20:40:10.214Z,4.03
2019-03-21T20:42:14.599Z,3.40
2019-03-21T20:44:19.018Z,3.60
2019-03-21T20:46:23.413Z,3.60
2019-03-21T20:48:29.506Z,3.77
2019-03-21T20:50:33.868Z,5.00
2019-03-21T20:52:38.247Z,9.07
2019-03-21T20:54:42.621Z,9.87
2019-03-21T20:56:47.091Z,9.60
2019-03-21T20:58:53.565Z,9.27
2019-03-21T21:00:57.576Z,8.03
2019-03-21T21:03:01.963Z,9.23
2019-03-21T21:05:08.423Z,8.40
2019-03-21T21:07:17.264Z,6.87
2019-03-21T21:09:21.753Z,4.83
2019-03-21T21:11:26.203Z,3.90
2019-03-21T21:13:30.999Z,3.50
2019-03-21T21:15:35.427Z,2.93
2019-03-21T21:17:39.735Z,3.63
2019-03-21T21:19:44.265Z,3.50
2019-03-21T21:21:48.552Z,4.43
2019-03-21T21:23:52.934Z,3.70
2019-03-21T21:26:05.446Z,3.67
2019-03-21T21:28:06.409Z,3.37
2019-03-21T21:30:12.474Z,3.33
2019-03-21T21:32:17.028Z,3.50
2019-03-21T21:34:24.311Z,3.47
2019-03-21T21:36:28.798Z,3.60
2019-03-21T21:38:33.250Z,4.23
2019-03-21T21:40:37.685Z,3.80
2019-03-21T21:42:42.037Z,4.70
2019-03-21T21:44:48.839Z,3.37
2019-03-21T21:46:53.436Z,3.20
2019-03-21T21:48:57.708Z,3.53
2019-03-21T21:51:02.028Z,3.97
2019-03-21T21:53:06.443Z,3.10
2019-03-21T21:55:12.193Z,3.50
2019-03-21T21:57:17.573Z,4.17
2019-03-21T21:59:21.896Z,3.33
2019-03-21T22:01:26.190Z,3.60
2019-03-21T22:03:30.487Z,3.50
2019-03-21T22:05:34.791Z,3.90
2019-03-21T22:07:39.158Z,3.20
2019-03-21T22:09:44.452Z,3.90
2019-03-21T22:11:48.849Z,3.73
2019-03-21T22:13:55.175Z,3.70
2019-03-21T22:15:59.566Z,3.70
2019-03-21T22:18:03.992Z,3.30
2019-03-21T22:20:09.582Z,3.40
2019-03-21T22:22:13.950Z,2.67
2019-03-21T22:24:18.253Z,2.80
2019-03-21T22:26:29.525Z,3.13
2019-03-21T22:28:28.640Z,3.57
2019-03-21T22:30:32.955Z,3.17
2019-03-21T22:32:37.455Z,3.53
2019-03-21T22:34:42.785Z,3.30
2019-03-21T22:36:49.545Z,3.47
2019-03-21T22:38:54.102Z,3.40
2019-03-21T22:40:59.407Z,4.37
2019-03-21T22:43:03.856Z,3.33
2019-03-21T22:45:10.994Z,3.77
2019-03-21T22:47:15.410Z,4.10
2019-03-21T22:49:19.852Z,4.27
2019-03-21T22:51:25.196Z,3.77
2019-03-21T22:53:30.267Z,3.80
2019-03-21T22:55:34.648Z,3.87
2019-03-21T22:57:40.123Z,3.77
2019-03-21T22:59:44.406Z,3.57
2019-03-21T23:01:48.786Z,3.70
2019-03-21T23:03:53.169Z,2.97
2019-03-21T23:05:57.447Z,3.27
2019-03-21T23:08:02.815Z,3.30
2019-03-21T23:10:08.095Z,2.93
2019-03-21T23:12:12.536Z,2.53
2019-03-21T23:14:16.852Z,3.10
2019-03-21T23:16:21.181Z,3.20
2019-03-21T23:18:25.505Z,3.33
2019-03-21T23:20:29.829Z,2.93
2019-03-21T23:22:34.134Z,2.70
2019-03-21T23:24:38.466Z,3.17
2019-03-21T23:26:52.444Z,3.33
2019-03-21T23:28:48.935Z,3.10
2019-03-21T23:30:53.206Z,3.13
2019-03-21T23:32:57.527Z,3.10
2019-03-21T23:35:01.877Z,3.30
2019-03-21T23:37:06.345Z,3.03
2019-03-21T23:39:10.866Z,2.70
2019-03-21T23:41:15.192Z,3.07
2019-03-21T23:43:19.619Z,3.40
2019-03-21T23:45:23.929Z,3.07
2019-03-21T23:47:28.248Z,2.87
2019-03-21T23:49:32.585Z,2.87
2019-03-21T23:51:37.920Z,3.40
2019-03-21T23:53:42.361Z,3.10
2019-03-21T23:55:47.647Z,3.10
2019-03-21T23:57:51.966Z,3.23
2019-03-21T23:59:56.312Z,3.30
